TAF and METAR

Decoding for American and Canadian METARs and TAFs is not fully implemented.

Could not understand the following METAR

PAEI 250011Z AUTO 24008KT 10SM SCT060 22/09 A2996 RMK AO2 SLP148 $

TAF for Eielson Air Force Base

TAF PAEI 242000Z 2420/2602 27009KT 9999 SCT100 BKN200 QNH2994INS TX21/2502Z TN12/2512Z
Report created 24. jun 22:00

between 24. jun 22:00 - 26. jun 04:00

wind 9 knots from W (270°) visibility > 10km scattered clouds (~50% cover) at 10000 feet broken clouds (~75% cover) at 20000 feet